Delta Virtual Airport Information Service

New York Newark Liberty International Airport

ICAO: KEWR Country: United States
Latitude: 40.6925 Longitude: -74.1686
Latest Arrival : FDX1029 (4) (KATL-KEWR) Latest Departure : UAL1122 (A) (KEWR-FACT)


WX CaptureLIVE
Data provided by noaa.gov | Fetched at 08:27:29

METAR : KEWR 041251Z 13012G16KT 9SM FEW005 BKN010 OVC025 26/24 A2991 RMK AO2 SLP128 T02560244

TAF : KEWR 041305Z 0413/0518 14012G20KT P6SM VCSH FEW005 BKN010 FM041500 14018G24KT 6SM -SHRA BR SCT005 OVC010 FM041700 14028G41KT 2SM +SHRA BR OVC015 WS020/15055KT FM041900 19036G51KT 4SM -SHRA BR BKN025 WS020/19065KT FM042200 24023G34KT P6SM FEW025 BKN250 FM050200 22011KT P6SM SCT250 FM050600 25005KT P6SM SCT250 FM051400 29006KT P6SM FEW050 SCT250


Runway Data for KEWR
Data provided by openaviationdata.com

Runway ID Mag Var Hdg Length Elevation Surface ILS Freq ILS Id ILS Slope
04L -13 38° 11003 ft 18 ft Asphalt 110.75 IEWR 3
04R -13 38° 9983 ft 18 ft Asphalt 108.7 IEZA 3
11 -13 108° 6790 ft 18 ft Asphalt 109.15 IGPR 3
22L -13 218° 9983 ft 18 ft Asphalt 108.7 ILSQ 3
22R -13 218° 11003 ft 18 ft Asphalt 110.75 IJNN 3
29 -13 288° 6790 ft 18 ft Asphalt -- -- --

New York Newark Liberty International Airport, United States
Use only for reference purposes



Not for navigational purposes.